Main page
METAR-TAF:

METAR-TAF

Airports :

Balıkesir Airport

Balikesir, Turkey

latitude: 39-37N, longitude: 027-55E, elevation: 101 m

Current weather observation

The report was made 1 hour and 13 minutes ago, at 06:50 UTC
Wind 11 kt from the North/Northeast
Temperature 19°C
Humidity 83%
Pressure 1020 hPa
Visibility 10 km or more
Scattered clouds at a height of 1500 ft
Scattered clouds at a height of 3500 ft

METAR: LTBF 150650Z 02011KT 9999 SCT015 SCT035 19/16 Q1020 NOSIG

Time: 11:03 (08:03 UTC)

Forecast

The report was made 3 hours and 23 minutes ago, at 04:40 UTC
Forecast valid from 15 at 06 UTC to 15 at 15 UTC
Wind 12 kt from the North
Visibility 10 km or more
Scattered clouds at a height of 1500 ft
Scattered clouds at a height of 3500 ft
Temporary
from 15 at 06 UTC to 15 at 09 UTC
light rain showers

TAF: LTBF 150440Z 1506/1515 01012KT 9999 SCT015 SCT035 TEMPO 1506/1509 -SHRA

Weather observations and forecasts of more than 4000 airports (METAR and TAF reports).

The available stations are represented by yellow and red dots on the map.

Hover mouse over dot to see the name of the station.

Then click to see weather observations and forecasts.

To change the map : click on the green buttons with a black cross to zoom in, on the green button with a dash to zoom out, or on the green arrows for adjacent maps.


METAR-TAF: